PHKO METAR and TAF weather

Enter ICAO airport designator
Station Type Date Time Source
PHKO METAR 2022/12/04 10:53 UTC NOAA

PHKO 041053Z AUTO 12006KT 10SM OVC090 24/21 A2998 RMK AO2 SLP150 T02390206 TSNO


Station Type Date Time Source
PHKO Decoded METAR 2022/12/04 10:53 UTC NOAA

KONA INTERNATIONAL AIRPORT, HI, United States (PHKO) 19-44N 156-03W 27M
Dec 04, 2022 - 05:53 AM EST / 2022.12.04 1053 UTC
Wind: from the ESE (120 degrees) at 7 MPH (6 KT):0
Visibility: 10 mile(s):0
Sky conditions: overcast
Temperature: 75.0 F (23.9 C)
Dew Point: 69.1 F (20.6 C)
Relative Humidity: 81%
Pressure (altimeter): 29.98 in. Hg (1015 hPa)
ob: PHKO 041053Z AUTO 12006KT 10SM OVC090 24/21 A2998 RMK AO2 SLP150 T02390206 TSNO
cycle: 11

Station Type Date Time Source
PHKO TAF 2022/12/04 12:22 UTC NOAA

TAF PHKO 041120Z 0412/0512 VRB05KT P6SM SCT060
FM042000 23010KT P6SM FEW030 SCT060
FM050500 VRB05KT P6SM FEW030 BKN060

Example: see airport list